Terminal Aerodrome Forecast
Issued by NWS Houston/Galveston TX

Home | Current Version | Previous Version | Text Only | Print | Product List | Glossary On
Versions: 1 2 3 4 5 6 7 8 9 10 11 12 13 14 15 16 17 18 19 20 21 22 23 24 25 26 27 28 29 30 31 32 33 34 35 36 37 38 39 40 41 42 43 44 45 46 47 48 49 50
000
FTUS44 KHGX 281728
TAFHOU
TAF
KHOU 281728Z 2818/0118 17013G23KT P6SM SCT025 BKN035
     FM282100 18013G23KT P6SM SCT040
     FM010200 17009KT P6SM BKN012 OVC025
     FM010900 18009KT 6SM BR VCSH BKN007 OVC012
     FM011300 23007KT P6SM VCSH BKN012 BKN250
     FM011700 32012G22KT P6SM SCT015 BKN250=

USA.gov is the U.S. government's official web portal to all federal, state and local government web resources and services.